createdAt,value
2018-06-09T00:00:57.464Z,0.00
2018-06-09T00:01:57.464Z,0.00
2018-06-09T00:02:57.403Z,0.00
2018-06-09T00:03:57.371Z,0.00
2018-06-09T00:04:57.332Z,0.00
2018-06-09T00:05:57.289Z,0.00
2018-06-09T00:06:57.310Z,0.00
2018-06-09T00:07:57.252Z,0.00
2018-06-09T00:08:57.210Z,0.00
2018-06-09T00:09:57.136Z,0.00
2018-06-09T00:10:57.149Z,0.00
2018-06-09T00:11:57.099Z,0.00
2018-06-09T00:12:57.082Z,0.00
2018-06-09T00:13:57.025Z,0.00
2018-06-09T00:14:56.973Z,0.00
2018-06-09T00:15:56.924Z,0.00
2018-06-09T00:16:56.904Z,0.00
2018-06-09T00:17:56.876Z,0.00
2018-06-09T00:18:56.815Z,0.00
2018-06-09T00:19:56.815Z,0.00
2018-06-09T00:20:56.767Z,0.00
2018-06-09T00:22:07.810Z,0.00
2018-06-09T00:22:56.666Z,0.00
2018-06-09T00:23:56.660Z,0.00
2018-06-09T00:24:56.596Z,0.00
2018-06-09T00:25:56.556Z,0.00
2018-06-09T00:26:56.526Z,0.00
2018-06-09T00:27:56.483Z,0.00
2018-06-09T00:28:56.482Z,0.00
2018-06-09T00:29:56.415Z,0.00
2018-06-09T00:30:56.396Z,0.00
2018-06-09T00:31:56.342Z,0.00
2018-06-09T00:32:56.306Z,0.00
2018-06-09T00:33:56.292Z,0.00
2018-06-09T00:34:56.272Z,0.00
2018-06-09T00:35:56.230Z,0.00
2018-06-09T00:36:56.151Z,0.00
2018-06-09T00:37:56.123Z,0.00
2018-06-09T00:38:56.126Z,0.00
2018-06-09T00:39:56.045Z,0.00
2018-06-09T00:40:56.052Z,0.00
2018-06-09T00:41:56.013Z,0.00
2018-06-09T00:42:55.945Z,0.00
2018-06-09T00:43:55.928Z,0.00
2018-06-09T00:44:55.924Z,0.00
2018-06-09T00:45:55.839Z,0.00
2018-06-09T00:46:55.826Z,0.00
2018-06-09T00:47:55.765Z,0.00
2018-06-09T00:48:55.753Z,0.00
2018-06-09T00:49:55.709Z,0.00
2018-06-09T00:50:55.680Z,0.00
2018-06-09T00:51:55.624Z,0.00
2018-06-09T00:52:55.613Z,0.00
2018-06-09T00:53:55.585Z,0.00
2018-06-09T00:54:55.507Z,0.00
2018-06-09T00:55:55.520Z,0.00
2018-06-09T00:56:55.470Z,0.00
2018-06-09T00:57:55.395Z,0.00
2018-06-09T00:58:55.397Z,0.00
2018-06-09T00:59:55.324Z,0.00
2018-06-09T01:00:55.306Z,0.00
2018-06-09T01:01:55.252Z,0.00
2018-06-09T01:02:55.213Z,0.00
2018-06-09T01:03:55.239Z,0.00
2018-06-09T01:04:55.147Z,0.00
2018-06-09T01:05:55.105Z,0.00
2018-06-09T01:06:55.110Z,0.00
2018-06-09T01:07:55.072Z,0.00
2018-06-09T01:08:55.031Z,0.00
2018-06-09T01:09:54.963Z,0.00
2018-06-09T01:10:54.934Z,0.00
2018-06-09T01:11:54.901Z,0.00
2018-06-09T01:12:54.855Z,0.00
2018-06-09T01:13:54.846Z,0.00
2018-06-09T01:14:54.798Z,0.00
2018-06-09T01:15:54.756Z,0.00
2018-06-09T01:16:54.711Z,0.00
2018-06-09T01:17:54.702Z,0.00
2018-06-09T01:18:54.670Z,0.00
2018-06-09T01:19:54.589Z,0.00
2018-06-09T01:20:54.594Z,0.00
2018-06-09T01:21:54.507Z,0.00
2018-06-09T01:22:54.526Z,0.00
2018-06-09T01:23:54.481Z,0.00
2018-06-09T01:24:54.437Z,0.00
2018-06-09T01:25:54.385Z,0.00
2018-06-09T01:26:54.382Z,0.00
2018-06-09T01:27:54.314Z,0.00
2018-06-09T01:28:54.320Z,0.00
2018-06-09T01:29:54.242Z,0.00
2018-06-09T01:30:54.184Z,0.00
2018-06-09T01:31:54.162Z,0.00
2018-06-09T01:32:54.107Z,0.00
2018-06-09T01:33:54.099Z,0.00
2018-06-09T01:34:54.033Z,0.00
2018-06-09T01:35:54.024Z,0.00
2018-06-09T01:36:53.975Z,0.00
2018-06-09T01:37:53.953Z,0.00
2018-06-09T01:38:53.897Z,0.00
2018-06-09T01:39:53.880Z,0.00
2018-06-09T01:40:53.846Z,0.00
2018-06-09T01:41:53.788Z,0.00
2018-06-09T01:42:53.762Z,0.00
2018-06-09T01:43:53.729Z,0.00
2018-06-09T01:44:53.711Z,0.00
2018-06-09T01:45:53.636Z,0.00
2018-06-09T01:46:53.597Z,0.00
2018-06-09T01:47:53.564Z,0.00
2018-06-09T01:48:53.535Z,0.00
2018-06-09T01:49:53.519Z,0.00
2018-06-09T01:50:53.468Z,0.00
2018-06-09T01:51:53.414Z,0.00
2018-06-09T01:52:53.381Z,0.00
2018-06-09T01:53:53.339Z,0.00
2018-06-09T01:54:53.324Z,0.00
2018-06-09T01:56:01.401Z,0.00
2018-06-09T01:56:53.216Z,0.00
2018-06-09T01:57:53.225Z,0.00
2018-06-09T01:58:53.159Z,0.00
2018-06-09T01:59:53.142Z,0.00
2018-06-09T02:00:53.083Z,0.00
2018-06-09T02:01:53.032Z,0.00
2018-06-09T02:02:53.007Z,0.00
2018-06-09T02:03:52.982Z,0.00
2018-06-09T02:04:52.971Z,0.00
2018-06-09T02:05:52.953Z,0.00
2018-06-09T02:06:52.881Z,0.00
2018-06-09T02:07:52.839Z,0.00
2018-06-09T02:08:52.810Z,0.00
2018-06-09T02:09:52.739Z,0.00
2018-06-09T02:10:52.742Z,0.00
2018-06-09T02:11:52.672Z,0.00
2018-06-09T02:12:52.645Z,0.00
2018-06-09T02:13:52.608Z,0.00
2018-06-09T02:14:52.566Z,0.00
2018-06-09T02:15:52.555Z,0.00
2018-06-09T02:16:52.489Z,0.00
2018-06-09T02:17:52.482Z,0.00
2018-06-09T02:18:52.428Z,0.00
2018-06-09T02:19:52.378Z,0.00
2018-06-09T02:20:52.365Z,0.00
2018-06-09T02:21:52.317Z,0.00
2018-06-09T02:22:52.276Z,0.00
2018-06-09T02:23:52.242Z,0.00
2018-06-09T02:24:52.209Z,0.00
2018-06-09T02:25:52.195Z,0.00
2018-06-09T02:26:52.150Z,0.00
2018-06-09T02:27:52.109Z,0.00
2018-06-09T02:28:52.055Z,0.00
2018-06-09T02:29:52.025Z,0.00
2018-06-09T02:30:51.980Z,0.00
2018-06-09T02:31:51.978Z,0.00
2018-06-09T02:32:51.892Z,0.00
2018-06-09T02:33:51.865Z,0.00
2018-06-09T02:34:51.842Z,0.00
2018-06-09T02:35:51.800Z,0.00
2018-06-09T02:36:51.804Z,4.00
2018-06-09T02:37:51.708Z,4.00
2018-06-09T02:38:51.691Z,4.00
2018-06-09T02:39:51.635Z,4.00
2018-06-09T02:40:51.611Z,0.00
2018-06-09T02:41:51.617Z,4.00
2018-06-09T02:42:51.545Z,4.00
2018-06-09T02:43:51.487Z,4.00
2018-06-09T02:44:51.459Z,8.00
2018-06-09T02:45:51.448Z,4.00
2018-06-09T02:46:51.416Z,8.00
2018-06-09T02:47:51.345Z,8.00
2018-06-09T02:48:51.308Z,12.00
2018-06-09T02:49:51.265Z,12.00
2018-06-09T02:50:51.221Z,12.00
2018-06-09T02:51:51.229Z,16.00
2018-06-09T02:52:51.211Z,16.00
2018-06-09T02:53:51.136Z,20.00
2018-06-09T02:54:51.115Z,20.00
2018-06-09T02:55:51.088Z,24.00
2018-06-09T02:56:51.051Z,28.00
2018-06-09T02:57:50.982Z,32.00
2018-06-09T02:58:50.957Z,32.00
2018-06-09T02:59:50.901Z,40.00
2018-06-09T03:00:50.868Z,44.00
2018-06-09T03:01:50.860Z,52.00
2018-06-09T03:02:50.790Z,56.00
2018-06-09T03:03:50.766Z,64.00
2018-06-09T03:04:50.730Z,68.00
2018-06-09T03:05:50.688Z,76.00
2018-06-09T03:06:50.677Z,84.00
2018-06-09T03:07:50.673Z,96.00
2018-06-09T03:08:50.589Z,108.00
2018-06-09T03:09:50.526Z,116.00
2018-06-09T03:10:50.484Z,124.00
2018-06-09T03:11:50.481Z,136.00
2018-06-09T03:12:50.426Z,148.00
2018-06-09T03:13:50.384Z,156.00
2018-06-09T03:14:50.359Z,168.00
2018-06-09T03:15:50.305Z,180.00
2018-06-09T03:16:50.279Z,200.00
2018-06-09T03:17:50.287Z,216.00
2018-06-09T03:18:50.211Z,236.00
2018-06-09T03:19:50.159Z,252.00
2018-06-09T03:20:50.125Z,268.00
2018-06-09T03:21:50.110Z,284.00
2018-06-09T03:22:50.074Z,308.00
2018-06-09T03:23:50.006Z,332.00
2018-06-09T03:24:49.978Z,360.00
2018-06-09T03:25:49.940Z,380.00
2018-06-09T03:26:49.923Z,404.00
2018-06-09T03:27:49.870Z,436.00
2018-06-09T03:28:49.848Z,472.00
2018-06-09T03:29:49.795Z,500.00
2018-06-09T03:30:49.751Z,520.00
2018-06-09T03:31:49.720Z,532.00
2018-06-09T03:32:49.674Z,564.00
2018-06-09T03:33:49.672Z,600.00
2018-06-09T03:34:49.601Z,620.00
2018-06-09T03:35:49.563Z,648.00
2018-06-09T03:36:49.529Z,704.00
2018-06-09T03:37:49.508Z,776.00
2018-06-09T03:38:49.482Z,844.00
2018-06-09T03:39:49.436Z,904.00
2018-06-09T03:40:49.389Z,972.00
2018-06-09T03:41:49.361Z,1072.00
2018-06-09T03:42:49.313Z,1148.00
2018-06-09T03:43:49.308Z,1196.00
2018-06-09T03:44:49.240Z,1244.00
2018-06-09T03:45:49.206Z,1308.00
2018-06-09T03:46:49.173Z,1336.00
2018-06-09T03:47:49.128Z,1352.00
2018-06-09T03:48:49.131Z,1420.00
2018-06-09T03:49:49.056Z,1480.00
2018-06-09T03:50:49.076Z,1444.00
2018-06-09T03:51:48.986Z,1400.00
2018-06-09T03:52:48.960Z,1384.00
2018-06-09T03:53:48.907Z,1368.00
2018-06-09T03:54:48.891Z,972.00
2018-06-09T03:55:48.815Z,1492.00
2018-06-09T03:56:48.787Z,1632.00
2018-06-09T03:57:48.763Z,1716.00
2018-06-09T03:58:48.731Z,1748.00
2018-06-09T03:59:48.705Z,1756.00
2018-06-09T04:00:48.654Z,1964.00
2018-06-09T04:01:48.617Z,2036.00
2018-06-09T04:02:48.591Z,2156.00
2018-06-09T04:03:48.554Z,2136.00
2018-06-09T04:04:48.539Z,2208.00
2018-06-09T04:05:48.477Z,2392.00
2018-06-09T04:06:48.405Z,2420.00
2018-06-09T04:07:48.370Z,2444.00
2018-06-09T04:08:48.381Z,2464.00
2018-06-09T04:09:48.325Z,2556.00
2018-06-09T04:10:48.271Z,2704.00
2018-06-09T04:11:48.236Z,2860.00
2018-06-09T04:12:48.235Z,2944.00
2018-06-09T04:13:48.151Z,3096.00
2018-06-09T04:14:48.154Z,3320.00
2018-06-09T04:15:48.108Z,3548.00
2018-06-09T04:16:48.049Z,3624.00
2018-06-09T04:17:58.434Z,3760.00
2018-06-09T04:18:47.960Z,3948.00
2018-06-09T04:19:47.926Z,4268.00
2018-06-09T04:20:47.920Z,4316.00
2018-06-09T04:21:47.868Z,4372.00
2018-06-09T04:22:47.824Z,4836.00
2018-06-09T04:23:47.785Z,5232.00
2018-06-09T04:24:47.755Z,5380.00
2018-06-09T04:25:47.752Z,5344.00
2018-06-09T04:26:47.670Z,5384.00
2018-06-09T04:27:47.638Z,5764.00
2018-06-09T04:28:47.602Z,6244.00
2018-06-09T04:29:47.584Z,6356.00
2018-06-09T04:30:47.559Z,6252.00
2018-06-09T04:31:47.517Z,6380.00
2018-06-09T04:32:47.458Z,6488.00
2018-06-09T04:33:47.424Z,6540.00
2018-06-09T04:34:47.412Z,6356.00
2018-06-09T04:35:47.372Z,6228.00
2018-06-09T04:36:47.326Z,6220.00
2018-06-09T04:37:47.271Z,6028.00
2018-06-09T04:38:47.241Z,5924.00
2018-06-09T04:39:47.220Z,5848.00
2018-06-09T04:40:55.986Z,5960.00
2018-06-09T04:41:47.117Z,5996.00
2018-06-09T04:42:47.081Z,6028.00
2018-06-09T04:43:47.048Z,5832.00
2018-06-09T04:44:47.010Z,5564.00
2018-06-09T04:45:47.013Z,5584.00
2018-06-09T04:46:46.985Z,5680.00
2018-06-09T04:47:46.931Z,5632.00
2018-06-09T04:48:46.911Z,5560.00
2018-06-09T04:49:46.848Z,5436.00
2018-06-09T04:50:46.807Z,5460.00
2018-06-09T04:51:46.800Z,5860.00
2018-06-09T04:52:46.739Z,5976.00
2018-06-09T04:53:46.687Z,6100.00
2018-06-09T04:54:46.680Z,6152.00
2018-06-09T04:55:46.622Z,6180.00
2018-06-09T04:56:46.612Z,6260.00
2018-06-09T04:57:46.564Z,6372.00
2018-06-09T04:58:46.522Z,6656.00
2018-06-09T04:59:46.487Z,6988.00
2018-06-09T05:00:46.455Z,7536.00
2018-06-09T05:01:46.436Z,8024.00
2018-06-09T05:02:46.395Z,8456.00
2018-06-09T05:03:46.344Z,9208.00
2018-06-09T05:04:46.344Z,9516.00
2018-06-09T05:05:46.262Z,9476.00
2018-06-09T05:06:46.264Z,10240.00
2018-06-09T05:07:46.203Z,10636.00
2018-06-09T05:08:46.170Z,10828.00
2018-06-09T05:09:46.135Z,11228.00
2018-06-09T05:10:46.075Z,11048.00
2018-06-09T05:11:46.054Z,11032.00
2018-06-09T05:12:46.043Z,11184.00
2018-06-09T05:13:45.963Z,11304.00
2018-06-09T05:14:45.958Z,11612.00
2018-06-09T05:15:45.904Z,11720.00
2018-06-09T05:16:45.866Z,11852.00
2018-06-09T05:17:45.860Z,11880.00
2018-06-09T05:18:45.806Z,12404.00
2018-06-09T05:19:45.785Z,13172.00
2018-06-09T05:20:45.737Z,13588.00
2018-06-09T05:21:45.710Z,13816.00
2018-06-09T05:22:45.687Z,14100.00
2018-06-09T05:23:45.622Z,14908.00
2018-06-09T05:24:45.594Z,15268.00
2018-06-09T05:25:45.560Z,16064.00
2018-06-09T05:26:45.538Z,15188.00
2018-06-09T05:27:45.496Z,16160.00
2018-06-09T05:28:45.440Z,17152.00
2018-06-09T05:29:45.419Z,17472.00
2018-06-09T05:30:45.377Z,16992.00
2018-06-09T05:31:45.343Z,17344.00
2018-06-09T05:32:45.315Z,17664.00
2018-06-09T05:33:45.294Z,17984.00
2018-06-09T05:34:45.234Z,17856.00
2018-06-09T05:35:45.215Z,17120.00
2018-06-09T05:36:45.180Z,16800.00
2018-06-09T05:37:45.124Z,17120.00
2018-06-09T05:38:45.110Z,15984.00
2018-06-09T05:39:45.077Z,15428.00
2018-06-09T05:40:45.030Z,14828.00
2018-06-09T05:41:45.009Z,15144.00
2018-06-09T05:42:44.969Z,14720.00
2018-06-09T05:43:44.961Z,15556.00
2018-06-09T05:44:44.891Z,17792.00
2018-06-09T05:45:44.854Z,18432.00
2018-06-09T05:46:44.841Z,17792.00
2018-06-09T05:47:44.788Z,17760.00
2018-06-09T05:48:44.742Z,17152.00
2018-06-09T05:49:44.743Z,20576.00
2018-06-09T05:50:44.696Z,20736.00
2018-06-09T05:51:44.673Z,18624.00
2018-06-09T05:52:44.604Z,17728.00
2018-06-09T05:53:44.577Z,18016.00
2018-06-09T05:54:44.568Z,19456.00
2018-06-09T05:55:44.530Z,17120.00
2018-06-09T05:56:44.491Z,18688.00
2018-06-09T05:57:44.433Z,17856.00
2018-06-09T05:58:44.415Z,17408.00
2018-06-09T05:59:44.394Z,19072.00
2018-06-09T06:00:44.335Z,17984.00
2018-06-09T06:01:44.317Z,19520.00
2018-06-09T06:02:44.277Z,21632.00
2018-06-09T06:03:44.249Z,20320.00
2018-06-09T06:04:44.234Z,19648.00
2018-06-09T06:05:44.171Z,19392.00
2018-06-09T06:06:44.167Z,20288.00
2018-06-09T06:07:44.103Z,22656.00
2018-06-09T06:08:44.105Z,20320.00
2018-06-09T06:09:44.031Z,20736.00
2018-06-09T06:10:43.994Z,23680.00
2018-06-09T06:11:43.986Z,22368.00
2018-06-09T06:12:43.939Z,23680.00
2018-06-09T06:13:43.929Z,27008.00
2018-06-09T06:14:43.892Z,30560.00
2018-06-09T06:15:43.845Z,32000.00
2018-06-09T06:16:43.807Z,32832.00
2018-06-09T06:17:43.770Z,32160.00
2018-06-09T06:18:43.806Z,33696.00
2018-06-09T06:19:43.727Z,34048.00
2018-06-09T06:20:43.666Z,34912.00
2018-06-09T06:21:43.644Z,36928.00
2018-06-09T06:22:43.625Z,37472.00
2018-06-09T06:23:43.569Z,38080.00
2018-06-09T06:24:43.564Z,38464.00
2018-06-09T06:25:43.528Z,38368.00
2018-06-09T06:26:43.502Z,36896.00
2018-06-09T06:27:43.454Z,37216.00
2018-06-09T06:28:43.426Z,38048.00
2018-06-09T06:29:43.438Z,38400.00
2018-06-09T06:30:43.340Z,38208.00
2018-06-09T06:31:43.321Z,34304.00
2018-06-09T06:32:43.291Z,29472.00
2018-06-09T06:33:43.259Z,33920.00
2018-06-09T06:34:43.230Z,33152.00
2018-06-09T06:35:43.216Z,33152.00
2018-06-09T06:36:43.179Z,32992.00
2018-06-09T06:37:54.537Z,30528.00
2018-06-09T06:38:43.090Z,29440.00
2018-06-09T06:39:43.048Z,29952.00
2018-06-09T06:40:43.056Z,33888.00
2018-06-09T06:41:42.986Z,35264.00
2018-06-09T06:42:42.967Z,38336.00
2018-06-09T06:43:42.950Z,42784.00
2018-06-09T06:44:42.957Z,45216.00
2018-06-09T06:45:42.936Z,45696.00
2018-06-09T06:46:42.854Z,46144.00
2018-06-09T06:47:42.825Z,44384.00
2018-06-09T06:48:42.780Z,41120.00
2018-06-09T06:49:42.745Z,40160.00
2018-06-09T06:50:42.716Z,38784.00
2018-06-09T06:51:42.764Z,42016.00
2018-06-09T06:52:42.681Z,42688.00
2018-06-09T06:53:42.628Z,41856.00
2018-06-09T06:54:42.609Z,36000.00
2018-06-09T06:55:42.602Z,33824.00
2018-06-09T06:56:42.596Z,38976.00
2018-06-09T06:57:42.525Z,41344.00
2018-06-09T06:58:42.490Z,42048.00
2018-06-09T06:59:42.440Z,43104.00
2018-06-09T07:00:42.419Z,38560.00
2018-06-09T07:01:42.414Z,33920.00
2018-06-09T07:02:42.349Z,32512.00
2018-06-09T07:03:42.343Z,31392.00
2018-06-09T07:04:42.299Z,31424.00
2018-06-09T07:05:42.278Z,32032.00
2018-06-09T07:06:42.265Z,31552.00
2018-06-09T07:07:42.201Z,32576.00
2018-06-09T07:08:42.174Z,37536.00
2018-06-09T07:09:42.154Z,39552.00
2018-06-09T07:10:42.120Z,39840.00
2018-06-09T07:11:42.084Z,39296.00
2018-06-09T07:12:42.073Z,37664.00
2018-06-09T07:13:42.024Z,39136.00
2018-06-09T07:14:41.994Z,39264.00
2018-06-09T07:15:41.970Z,39008.00
2018-06-09T07:16:41.942Z,41600.00
2018-06-09T07:17:41.946Z,40544.00
2018-06-09T07:18:41.881Z,38080.00
2018-06-09T07:19:41.864Z,33088.00
2018-06-09T07:20:41.878Z,35968.00
2018-06-09T07:21:41.829Z,39616.00
2018-06-09T07:22:41.790Z,39904.00
2018-06-09T07:23:41.753Z,42272.00
2018-06-09T07:24:41.715Z,41280.00
2018-06-09T07:25:41.679Z,36512.00
2018-06-09T07:26:41.660Z,35776.00
2018-06-09T07:27:41.655Z,35872.00
2018-06-09T07:28:41.601Z,35424.00
2018-06-09T07:29:41.567Z,33856.00
2018-06-09T07:30:41.537Z,32640.00
2018-06-09T07:31:41.499Z,32928.00
2018-06-09T07:32:41.505Z,31968.00
2018-06-09T07:33:41.434Z,31808.00
2018-06-09T07:34:41.411Z,31904.00
2018-06-09T07:35:41.378Z,32640.00
2018-06-09T07:36:41.388Z,36672.00
2018-06-09T07:37:41.323Z,33888.00
2018-06-09T07:38:41.292Z,40192.00
2018-06-09T07:39:41.251Z,37696.00
2018-06-09T07:40:41.233Z,35456.00
2018-06-09T07:41:41.221Z,32800.00
2018-06-09T07:42:41.174Z,31712.00
2018-06-09T07:43:41.126Z,30272.00
2018-06-09T07:44:41.098Z,30208.00
2018-06-09T07:45:41.091Z,29056.00
2018-06-09T07:46:41.060Z,28416.00
2018-06-09T07:47:41.014Z,27712.00
2018-06-09T07:48:40.995Z,27136.00
2018-06-09T07:49:40.949Z,26496.00
2018-06-09T07:50:40.926Z,25920.00
2018-06-09T07:51:40.924Z,25440.00
2018-06-09T07:52:40.881Z,25152.00
2018-06-09T07:53:40.836Z,25120.00
2018-06-09T07:54:40.812Z,25152.00
2018-06-09T07:55:40.773Z,25216.00
2018-06-09T07:56:40.764Z,25856.00
2018-06-09T07:57:40.703Z,26912.00
2018-06-09T07:58:40.666Z,33024.00
2018-06-09T07:59:40.654Z,33312.00
2018-06-09T08:00:40.617Z,34880.00
2018-06-09T08:01:40.612Z,47488.00
2018-06-09T08:02:40.556Z,55648.00
2018-06-09T08:03:40.517Z,40704.00
2018-06-09T08:04:40.496Z,37312.00
2018-06-09T08:05:40.453Z,36256.00
2018-06-09T08:06:40.447Z,35680.00
2018-06-09T08:07:40.412Z,34240.00
2018-06-09T08:08:40.366Z,32512.00
2018-06-09T08:09:40.336Z,31712.00
2018-06-09T08:10:40.307Z,31136.00
2018-06-09T08:11:40.292Z,30688.00
2018-06-09T08:12:40.243Z,30976.00
2018-06-09T08:13:40.231Z,30848.00
2018-06-09T08:14:40.186Z,31232.00
2018-06-09T08:15:40.172Z,40512.00
2018-06-09T08:16:40.115Z,32672.00
2018-06-09T08:17:40.090Z,32832.00
2018-06-09T08:18:40.055Z,56384.00
2018-06-09T08:19:40.033Z,48032.00
2018-06-09T08:20:40.032Z,38560.00
2018-06-09T08:21:39.971Z,32704.00
2018-06-09T08:22:39.946Z,45536.00
2018-06-09T08:23:39.910Z,41376.00
2018-06-09T08:24:39.871Z,45600.00
2018-06-09T08:25:39.838Z,42752.00
2018-06-09T08:26:39.834Z,38688.00
2018-06-09T08:27:39.786Z,37280.00
2018-06-09T08:28:39.751Z,36800.00
2018-06-09T08:29:39.717Z,34592.00
2018-06-09T08:30:39.721Z,33024.00
2018-06-09T08:31:39.670Z,31296.00
2018-06-09T08:32:39.633Z,33152.00
2018-06-09T08:33:39.612Z,29280.00
2018-06-09T08:34:39.579Z,29152.00
2018-06-09T08:35:39.566Z,30048.00
2018-06-09T08:36:39.508Z,30400.00
2018-06-09T08:37:39.478Z,31104.00
2018-06-09T08:38:39.441Z,31392.00
2018-06-09T08:39:39.424Z,30880.00
2018-06-09T08:40:39.395Z,30720.00
2018-06-09T08:41:39.385Z,30176.00
2018-06-09T08:42:39.331Z,30400.00
2018-06-09T08:43:39.291Z,29760.00
2018-06-09T08:44:39.265Z,29824.00
2018-06-09T08:45:39.257Z,30368.00
2018-06-09T08:46:39.240Z,30048.00
2018-06-09T08:47:39.182Z,30560.00
2018-06-09T08:48:39.150Z,30464.00
2018-06-09T08:49:39.121Z,31072.00
2018-06-09T08:50:39.086Z,31328.00
2018-06-09T08:51:39.096Z,31360.00
2018-06-09T08:52:39.037Z,31840.00
2018-06-09T08:53:39.030Z,32608.00
2018-06-09T08:54:39.032Z,34080.00
2018-06-09T08:55:38.937Z,35744.00
2018-06-09T08:56:38.903Z,36416.00
2018-06-09T08:57:38.913Z,36640.00
2018-06-09T08:58:38.838Z,36128.00
2018-06-09T08:59:38.827Z,36480.00
2018-06-09T09:00:38.788Z,39680.00
2018-06-09T09:01:38.752Z,36352.00
2018-06-09T09:02:38.763Z,38464.00
2018-06-09T09:03:38.698Z,41280.00
2018-06-09T09:04:38.662Z,45248.00
2018-06-09T09:05:38.676Z,38688.00
2018-06-09T09:06:38.723Z,39520.00
2018-06-09T09:07:38.604Z,44800.00
2018-06-09T09:08:38.550Z,69952.00
2018-06-09T09:09:38.522Z,61216.00
2018-06-09T09:10:38.483Z,43424.00
2018-06-09T09:11:38.455Z,59200.00
2018-06-09T09:12:38.455Z,61600.00
2018-06-09T09:13:38.406Z,61376.00
2018-06-09T09:14:38.374Z,72096.00
2018-06-09T09:15:38.346Z,58208.00
2018-06-09T09:16:38.306Z,66112.00
2018-06-09T09:17:38.349Z,68288.00
2018-06-09T09:18:38.252Z,65344.00
2018-06-09T09:19:38.213Z,64288.00
2018-06-09T09:20:38.179Z,48128.00
2018-06-09T09:21:38.179Z,51264.00
2018-06-09T09:22:38.162Z,55136.00
2018-06-09T09:23:38.137Z,50848.00
2018-06-09T09:24:38.087Z,46720.00
2018-06-09T09:25:38.080Z,41152.00
2018-06-09T09:26:38.034Z,45088.00
2018-06-09T09:27:38.028Z,48064.00
2018-06-09T09:28:37.972Z,58432.00
2018-06-09T09:29:37.937Z,66592.00
2018-06-09T09:30:37.929Z,66176.00
2018-06-09T09:31:37.887Z,65536.00
2018-06-09T09:32:37.887Z,62816.00
2018-06-09T09:33:37.846Z,59200.00
2018-06-09T09:34:37.804Z,51616.00
2018-06-09T09:35:37.822Z,45440.00
2018-06-09T09:36:37.757Z,56864.00
2018-06-09T09:37:37.736Z,56192.00
2018-06-09T09:38:38.167Z,54976.00
2018-06-09T09:39:37.673Z,62656.00
2018-06-09T09:40:37.649Z,63584.00
2018-06-09T09:41:37.613Z,61440.00
2018-06-09T09:42:37.622Z,64480.00
2018-06-09T09:43:37.594Z,66624.00
2018-06-09T09:44:37.573Z,68640.00
2018-06-09T09:45:37.523Z,61120.00
2018-06-09T09:46:37.495Z,68544.00
2018-06-09T09:47:37.465Z,62912.00
2018-06-09T09:48:37.473Z,56800.00
2018-06-09T09:49:37.428Z,63616.00
2018-06-09T09:50:37.390Z,52928.00
2018-06-09T09:51:37.353Z,46144.00
2018-06-09T09:52:37.328Z,41760.00
2018-06-09T09:53:37.305Z,44288.00
2018-06-09T09:54:37.313Z,45792.00
2018-06-09T09:55:37.261Z,54944.00
2018-06-09T09:56:37.236Z,57728.00
2018-06-09T09:57:37.210Z,45312.00
2018-06-09T09:58:37.201Z,47360.00
2018-06-09T09:59:37.168Z,51008.00
2018-06-09T10:00:37.127Z,50944.00
2018-06-09T10:01:37.107Z,53952.00
2018-06-09T10:02:37.184Z,59360.00
2018-06-09T10:03:37.075Z,59264.00
2018-06-09T10:04:37.052Z,53408.00
2018-06-09T10:05:37.002Z,62784.00
2018-06-09T10:06:36.975Z,57984.00
2018-06-09T10:07:36.986Z,61120.00
2018-06-09T10:08:36.960Z,52032.00
2018-06-09T10:09:36.904Z,62784.00
2018-06-09T10:10:36.872Z,63168.00
2018-06-09T10:11:36.859Z,59168.00
2018-06-09T10:12:36.816Z,57312.00
2018-06-09T10:13:36.813Z,54336.00
2018-06-09T10:14:36.779Z,54944.00
2018-06-09T10:15:36.759Z,53184.00
2018-06-09T10:16:36.729Z,52576.00
2018-06-09T10:17:36.694Z,50688.00
2018-06-09T10:18:36.693Z,54528.00
2018-06-09T10:19:36.635Z,59712.00
2018-06-09T10:20:36.608Z,59936.00
2018-06-09T10:21:36.593Z,54176.00
2018-06-09T10:22:36.566Z,56000.00
2018-06-09T10:23:36.556Z,58144.00
2018-06-09T10:24:36.520Z,56640.00
2018-06-09T10:25:36.487Z,55872.00
2018-06-09T10:26:36.461Z,55520.00
2018-06-09T10:27:36.441Z,55584.00
2018-06-09T10:28:36.440Z,56448.00
2018-06-09T10:29:36.391Z,57120.00
2018-06-09T10:30:36.369Z,56672.00
2018-06-09T10:31:36.358Z,57152.00
2018-06-09T10:32:36.315Z,54880.00
2018-06-09T10:33:36.313Z,55840.00
2018-06-09T10:34:36.263Z,56576.00
2018-06-09T10:35:36.248Z,56000.00
2018-06-09T10:36:36.222Z,55968.00
2018-06-09T10:37:36.260Z,56672.00
2018-06-09T10:38:36.219Z,54752.00
2018-06-09T10:39:36.152Z,53728.00
2018-06-09T10:40:36.129Z,53120.00
2018-06-09T10:41:36.113Z,53792.00
2018-06-09T10:42:36.100Z,55808.00
2018-06-09T10:43:36.045Z,58592.00
2018-06-09T10:44:36.036Z,59392.00
2018-06-09T10:45:36.007Z,58816.00
2018-06-09T10:46:35.982Z,57952.00
2018-06-09T10:47:35.972Z,57600.00
2018-06-09T10:48:35.924Z,57216.00
2018-06-09T10:49:35.901Z,57184.00
2018-06-09T10:50:35.885Z,57408.00
2018-06-09T10:51:35.868Z,57600.00
2018-06-09T10:52:35.859Z,56960.00
2018-06-09T10:53:35.816Z,55744.00
2018-06-09T10:54:35.785Z,55104.00
2018-06-09T10:55:35.771Z,55872.00
2018-06-09T10:56:35.747Z,56800.00
2018-06-09T10:57:35.785Z,57024.00
2018-06-09T10:58:35.697Z,57792.00
2018-06-09T10:59:35.662Z,56640.00
2018-06-09T11:00:35.647Z,57632.00
2018-06-09T11:01:35.647Z,58720.00
2018-06-09T11:02:35.626Z,58368.00
2018-06-09T11:03:35.612Z,58624.00
2018-06-09T11:04:35.565Z,57120.00
2018-06-09T11:05:35.528Z,48192.00
2018-06-09T11:06:35.526Z,45248.00
2018-06-09T11:07:35.479Z,38656.00
2018-06-09T11:08:35.502Z,41152.00
2018-06-09T11:09:35.460Z,38944.00
2018-06-09T11:10:35.430Z,57280.00
2018-06-09T11:11:35.401Z,53792.00
2018-06-09T11:12:35.375Z,63040.00
2018-06-09T11:13:35.367Z,61984.00
2018-06-09T11:14:35.323Z,61600.00
2018-06-09T11:15:35.314Z,60480.00
2018-06-09T11:16:35.287Z,59264.00
2018-06-09T11:17:35.252Z,58752.00
2018-06-09T11:18:35.252Z,57152.00
2018-06-09T11:19:35.211Z,58400.00
2018-06-09T11:20:35.196Z,59040.00
2018-06-09T11:21:35.167Z,59168.00
2018-06-09T11:22:35.141Z,58336.00
2018-06-09T11:23:35.114Z,58784.00
2018-06-09T11:24:35.129Z,57376.00
2018-06-09T11:25:35.048Z,58176.00
2018-06-09T11:26:35.055Z,58752.00
2018-06-09T11:27:35.023Z,57888.00
2018-06-09T11:28:34.991Z,58144.00
2018-06-09T11:29:35.007Z,56928.00
2018-06-09T11:30:34.938Z,57760.00
2018-06-09T11:31:34.931Z,59840.00
2018-06-09T11:32:34.881Z,60096.00
2018-06-09T11:33:34.882Z,60384.00
2018-06-09T11:34:34.863Z,59968.00
2018-06-09T11:35:34.821Z,58336.00
2018-06-09T11:36:34.816Z,58880.00
2018-06-09T11:37:34.783Z,57568.00
2018-06-09T11:38:34.752Z,58688.00
2018-06-09T11:39:34.722Z,58336.00
2018-06-09T11:40:34.725Z,58464.00
2018-06-09T11:41:34.690Z,59104.00
2018-06-09T11:42:34.660Z,59168.00
2018-06-09T11:43:34.626Z,59264.00
2018-06-09T11:44:34.598Z,58240.00
2018-06-09T11:45:34.611Z,57248.00
2018-06-09T11:46:34.564Z,57408.00
2018-06-09T11:47:34.564Z,58752.00
2018-06-09T11:48:34.537Z,59712.00
2018-06-09T11:49:34.510Z,58944.00
2018-06-09T11:50:34.501Z,58592.00
2018-06-09T11:51:34.455Z,58944.00
2018-06-09T11:52:34.420Z,59168.00
2018-06-09T11:53:34.393Z,59616.00
2018-06-09T11:54:34.383Z,59296.00
2018-06-09T11:55:34.397Z,58016.00
2018-06-09T11:56:34.375Z,59232.00
2018-06-09T11:57:34.291Z,57952.00
2018-06-09T11:58:34.318Z,58752.00
2018-06-09T11:59:34.262Z,58368.00
2018-06-09T12:00:34.257Z,58272.00
2018-06-09T12:01:34.236Z,58400.00
2018-06-09T12:02:34.214Z,57088.00
2018-06-09T12:03:34.185Z,56288.00
2018-06-09T12:04:34.161Z,56000.00
2018-06-09T12:05:34.155Z,56192.00
2018-06-09T12:06:34.152Z,57344.00
2018-06-09T12:07:34.092Z,57120.00
2018-06-09T12:08:34.092Z,57120.00
2018-06-09T12:09:34.022Z,56768.00
2018-06-09T12:10:33.989Z,58592.00